^^
 
Daily Summary for August 10, 2020 Units:  English    Metric   Both
Daily Weekly Monthly Yearly Custom
  Current: High: Low: Average:
Temperature: 71.3 °F 75 °F 71.2 °F 72.6 °F
Dew Point: 54.3 °F 54.9 °F 52.7 °F 54.4 °F
Humidity: 55% 56% 45.9% 53%
Wind Speed: 0.6mph 1mph 0mph 0.1mph
Wind Gust: 3mph 3mph - -
WindSSW - - South
Pressure: 29.87 in 29.91 in 29.87 in -
Precipitation: 0.00 in      
Historical Graphs
 
 
Tabular Data for August 10, 2020
Time Temperature Dew Point Pressure Wind Wind Speed Wind Gust Humidity Rainfall Rate (Hourly) solar
00:04 75 °F 52.7 °F 29.91 in Calm     45.9% 0.00 in 0 W/m2
00:09 74.8 °F 53.1 °F 29.90 in Calm     46.7% 0.00 in 0 W/m2
00:14 74.7 °F 53.1 °F 29.90 in Calm     47% 0.00 in 0 W/m2
00:19 74.6 °F 53.4 °F 29.90 in Calm     47.7% 0.00 in 0 W/m2
00:24 74.4 °F 53.6 °F 29.90 in Calm     48.3% 0.00 in 0 W/m2
00:29 74.3 °F 53.8 °F 29.90 in Calm     48.9% 0.00 in 0 W/m2
00:34 74.1 °F 53.8 °F 29.90 in Calm     49.1% 0.00 in 0 W/m2
00:39 74 °F 54.2 °F 29.90 in Calm     49.9% 0.00 in 0 W/m2
00:44 73.9 °F 54.3 °F 29.90 in Calm     50.4% 0.00 in 0 W/m2
00:49 73.8 °F 54.5 °F 29.90 in Calm     51% 0.00 in 0 W/m2
00:54 73.7 °F 54.4 °F 29.90 in Calm     51% 0.00 in 0 W/m2
00:59 73.6 °F 54.5 °F 29.89 in Calm     51.3% 0.00 in 0 W/m2
01:04 73.5 °F 54.5 °F 29.89 in Calm     51.3% 0.00 in 0 W/m2
01:09 73.4 °F 54.2 °F 29.89 in Calm     51% 0.00 in 0 W/m2
01:14 73.4 °F 54.6 °F 29.89 in Calm     51.9% 0.00 in 0 W/m2
01:19 73.3 °F 54.6 °F 29.89 in Calm     52% 0.00 in 0 W/m2
01:24 73.2 °F 54.5 °F 29.89 in Calm     52% 0.00 in 0 W/m2
01:29 73.1 °F 54.6 °F 29.89 in Calm     52.4% 0.00 in 0 W/m2
01:34 73 °F 54.9 °F 29.89 in Calm     53% 0.00 in 0 W/m2
01:39 73 °F 54.9 °F 29.89 in Calm     53% 0.00 in 0 W/m2
01:44 72.9 °F 54.8 °F 29.89 in Calm     53% 0.00 in 0 W/m2
01:49 72.8 °F 54.9 °F 29.88 in Calm     53.4% 0.00 in 0 W/m2
01:54 72.7 °F 54.9 °F 29.88 in Calm     53.6% 0.00 in 0 W/m2
01:59 72.7 °F 54.8 °F 29.88 in Calm     53.4% 0.00 in 0 W/m2
02:04 72.6 °F 54.6 °F 29.88 in Calm     53.3% 0.00 in 0 W/m2
02:09 72.5 °F 54.6 °F 29.88 in Calm     53.3% 0.00 in 0 W/m2
02:14 72.5 °F 54.8 °F 29.88 in Calm     53.9% 0.00 in 0 W/m2
02:19 72.4 °F 54.8 °F 29.88 in Calm     54% 0.00 in 0 W/m2
02:24 72.4 °F 54.6 °F 29.88 in Calm     53.5% 0.00 in 0 W/m2
02:29 72.3 °F 54.6 °F 29.88 in Calm     53.7% 0.00 in 0 W/m2
02:34 72.3 °F 54.7 °F 29.88 in North 0.2 mph 0.2 mph 54% 0.00 in 0 W/m2
02:39 72.2 °F 54.6 °F 29.88 in North 0.3 mph 2 mph 54% 0.00 in 0 W/m2
02:44 72.2 °F 54.6 °F 29.88 in Calm     54% 0.00 in 0 W/m2
02:49 72.1 °F 54.5 °F 29.88 in Calm     54% 0.00 in 0 W/m2
02:54 72.1 °F 54.5 °F 29.88 in Calm     54% 0.00 in 0 W/m2
02:59 72 °F 54.4 °F 29.88 in Calm     54% 0.00 in 0 W/m2
03:04 71.9 °F 54.3 °F 29.88 in Calm     54% 0.00 in 0 W/m2
03:09 71.9 °F 54.4 °F 29.88 in Calm     54.1% 0.00 in 0 W/m2
03:14 71.8 °F 54.5 °F 29.88 in Calm     54.4% 0.00 in 0 W/m2
03:19 71.7 °F 54.4 °F 29.88 in Calm     54.3% 0.00 in 0 W/m2
03:24 71.7 °F 54.4 °F 29.88 in Calm     54.4% 0.00 in 0 W/m2
03:29 71.6 °F 54.6 °F 29.88 in Calm     55% 0.00 in 0 W/m2
03:34 71.6 °F 54.6 °F 29.88 in Calm     55% 0.00 in 0 W/m2
03:39 71.5 °F 54.6 °F 29.88 in Calm     55.3% 0.00 in 0 W/m2
03:44 71.4 °F 54.9 °F 29.88 in NW 1 mph 0.3 mph 56% 0.00 in 0 W/m2
03:49 71.3 °F 54.8 °F 29.88 in Calm   3 mph 56% 0.00 in 0 W/m2
03:54 71.3 °F 54.8 °F 29.88 in NW 0.6 mph 0.1 mph 56% 0.00 in 0 W/m2
03:59 71.3 °F 54.8 °F 29.88 in SSW 1 mph 2 mph 56% 0.00 in 0 W/m2
04:04 71.2 °F 54.7 °F 29.88 in Calm   2 mph 56% 0.00 in 0 W/m2
04:09 71.2 °F 54.7 °F 29.88 in Calm     56% 0.00 in 0 W/m2
04:14 71.2 °F 54.7 °F 29.88 in Calm     56% 0.00 in 0 W/m2
04:19 71.2 °F 54.7 °F 29.88 in Calm     56% 0.00 in 0 W/m2
04:24 71.3 °F 54.8 °F 29.88 in SW 1 mph 0.6 mph 56% 0.00 in 0 W/m2
04:29 71.2 °F 54.7 °F 29.88 in Calm   3 mph 55.9% 0.00 in 0 W/m2
04:34 71.3 °F 54.3 °F 29.88 in SSW 0.8 mph 0.9 mph 55% 0.00 in 0 W/m2
04:38 71.3 °F 54.3 °F 29.87 in SSW 0.6 mph 3 mph 55% 0.00 in 0 W/m2
El Dorado Weather
Compliments of Weather Underground - 1.75 mb